createdAt,value
2023-02-03T00:01:50.166Z,57.62
2023-02-03T00:04:16.761Z,57.71
2023-02-03T00:06:44.019Z,58.19
2023-02-03T00:09:10.765Z,57.77
2023-02-03T00:11:37.766Z,57.39
2023-02-03T00:14:04.471Z,57.38
2023-02-03T00:16:31.465Z,57.17
2023-02-03T00:18:57.995Z,57.68
2023-02-03T00:21:25.323Z,57.73
2023-02-03T00:23:51.826Z,57.55
2023-02-03T00:26:18.556Z,57.81
2023-02-03T00:28:45.511Z,57.82
2023-02-03T00:31:21.178Z,57.82
2023-02-03T00:33:52.926Z,57.05
2023-02-03T00:36:19.449Z,56.99
2023-02-03T00:38:45.900Z,57.10
2023-02-03T00:41:12.391Z,57.05
2023-02-03T00:43:38.970Z,57.02
2023-02-03T00:46:05.508Z,56.96
2023-02-03T00:48:32.016Z,56.45
2023-02-03T00:50:58.537Z,56.54
2023-02-03T00:53:24.989Z,56.79
2023-02-03T00:55:51.449Z,56.64
2023-02-03T00:58:17.923Z,56.51
2023-02-03T01:00:44.376Z,56.98
2023-02-03T01:03:10.865Z,56.23
2023-02-03T01:05:37.368Z,56.93
2023-02-03T01:08:04.045Z,56.89
2023-02-03T01:10:30.607Z,56.84
2023-02-03T01:12:57.159Z,56.82
2023-02-03T01:15:23.626Z,56.79
2023-02-03T01:17:50.114Z,56.85
2023-02-03T01:20:16.726Z,57.21
2023-02-03T01:22:43.199Z,57.09
2023-02-03T01:25:09.798Z,56.71
2023-02-03T01:27:36.477Z,56.62
2023-02-03T01:30:03.247Z,56.16
2023-02-03T01:32:29.749Z,56.46
2023-02-03T01:34:56.230Z,55.98
2023-02-03T01:37:22.750Z,56.18
2023-02-03T01:39:49.246Z,55.97
2023-02-03T01:42:16.295Z,56.04
2023-02-03T01:44:49.115Z,56.07
2023-02-03T01:47:18.989Z,56.52
2023-02-03T01:49:55.808Z,57.04
2023-02-03T01:52:23.271Z,56.47
2023-02-03T01:54:53.623Z,56.40
2023-02-03T01:57:27.060Z,56.17
2023-02-03T01:59:58.995Z,55.84
2023-02-03T02:02:25.710Z,55.67
2023-02-03T02:05:31.042Z,55.16
2023-02-03T02:08:01.644Z,55.22
2023-02-03T02:10:30.333Z,54.53
2023-02-03T02:13:03.263Z,54.94
2023-02-03T02:15:58.187Z,54.57
2023-02-03T02:18:39.970Z,54.47
2023-02-03T02:21:43.902Z,54.38
2023-02-03T02:24:44.411Z,54.56
2023-02-03T02:27:48.485Z,54.43
2023-02-03T02:30:56.827Z,53.35
2023-02-03T02:33:53.500Z,53.36
2023-02-03T02:36:49.848Z,53.21
2023-02-03T02:39:54.650Z,52.58
2023-02-03T02:42:41.269Z,52.63
2023-02-03T02:45:20.776Z,52.14
2023-02-03T02:47:49.640Z,52.36
2023-02-03T02:50:28.798Z,52.20
2023-02-03T02:52:57.669Z,52.47
2023-02-03T02:55:28.541Z,52.28
2023-02-03T02:58:04.653Z,52.78
2023-02-03T03:00:34.389Z,52.67
2023-02-03T03:03:15.644Z,52.86
2023-02-03T03:05:48.577Z,53.38
2023-02-03T03:08:21.242Z,53.46
2023-02-03T03:10:48.780Z,53.55
2023-02-03T03:13:24.893Z,54.42
2023-02-03T03:15:56.733Z,54.73
2023-02-03T03:18:38.786Z,54.37
2023-02-03T03:21:07.510Z,54.68
2023-02-03T03:23:44.901Z,54.51
2023-02-03T03:26:32.273Z,54.45
2023-02-03T03:29:14.750Z,54.89
2023-02-03T03:31:41.938Z,55.54
2023-02-03T03:34:12.176Z,55.49
2023-02-03T03:36:58.000Z,55.35
2023-02-03T03:39:35.367Z,56.39
2023-02-03T03:42:15.135Z,56.47
2023-02-03T03:44:58.799Z,56.08
2023-02-03T03:47:39.673Z,56.49
2023-02-03T03:50:11.562Z,56.52
2023-02-03T03:52:41.573Z,57.28
2023-02-03T03:55:12.922Z,57.07
2023-02-03T03:58:06.863Z,57.59
2023-02-03T04:00:37.571Z,57.44
2023-02-03T04:03:17.618Z,57.65
2023-02-03T04:05:44.389Z,57.33
2023-02-03T04:08:10.854Z,58.01
2023-02-03T04:10:40.946Z,57.43
2023-02-03T04:13:09.201Z,58.12
2023-02-03T04:15:38.876Z,57.71
2023-02-03T04:18:05.696Z,57.94
2023-02-03T04:20:33.182Z,57.67
2023-02-03T04:23:00.402Z,57.75
2023-02-03T04:25:26.931Z,57.79
2023-02-03T04:27:54.280Z,57.68
2023-02-03T04:30:20.923Z,57.72
2023-02-03T04:32:47.557Z,57.98
2023-02-03T04:35:14.596Z,58.29
2023-02-03T04:37:41.492Z,58.41
2023-02-03T04:40:08.898Z,58.74
2023-02-03T04:42:37.614Z,58.76
2023-02-03T04:45:05.895Z,58.72
2023-02-03T04:47:32.372Z,58.66
2023-02-03T04:49:58.884Z,58.05
2023-02-03T04:52:25.361Z,58.58
2023-02-03T04:54:51.850Z,58.06
2023-02-03T04:57:18.361Z,58.78
2023-02-03T04:59:44.843Z,59.35
2023-02-03T05:02:11.398Z,60.04
2023-02-03T05:04:38.571Z,59.86
2023-02-03T05:07:05.020Z,59.55
2023-02-03T05:09:31.502Z,59.41
2023-02-03T05:11:57.964Z,59.19
2023-02-03T05:14:24.419Z,59.37
2023-02-03T05:16:50.962Z,58.87
2023-02-03T05:19:17.540Z,58.47
2023-02-03T05:21:44.018Z,57.96
2023-02-03T05:24:10.539Z,57.79
2023-02-03T05:26:37.072Z,58.83
2023-02-03T05:29:03.942Z,58.62
2023-02-03T05:31:30.484Z,59.00
2023-02-03T05:33:57.072Z,58.50
2023-02-03T05:36:23.565Z,58.91
2023-02-03T05:38:50.204Z,58.94
2023-02-03T05:41:16.657Z,59.18
2023-02-03T05:43:43.147Z,59.06
2023-02-03T05:46:09.690Z,58.60
2023-02-03T05:48:36.410Z,59.08
2023-02-03T05:51:03.095Z,59.48
2023-02-03T05:53:29.645Z,59.95
2023-02-03T05:55:56.292Z,60.43
2023-02-03T05:58:22.970Z,60.64
2023-02-03T06:00:52.483Z,60.20
2023-02-03T06:03:18.975Z,60.10
2023-02-03T06:05:45.467Z,58.99
2023-02-03T06:08:11.965Z,59.87
2023-02-03T06:10:38.475Z,59.36
2023-02-03T06:13:11.008Z,59.82
2023-02-03T06:15:37.693Z,60.14
2023-02-03T06:18:04.278Z,60.45
2023-02-03T06:20:30.978Z,62.68
2023-02-03T06:22:57.468Z,64.36
2023-02-03T06:25:24.001Z,65.66
2023-02-03T06:27:51.121Z,67.18
2023-02-03T06:30:18.048Z,68.13
2023-02-03T06:32:44.502Z,68.28
2023-02-03T06:35:10.997Z,68.85
2023-02-03T06:37:37.456Z,67.70
2023-02-03T06:40:04.628Z,67.03
2023-02-03T06:42:32.010Z,66.03
2023-02-03T06:44:58.512Z,64.62
2023-02-03T06:47:24.987Z,63.97
2023-02-03T06:49:51.576Z,64.23
2023-02-03T06:52:18.667Z,62.51
2023-02-03T06:54:45.153Z,62.83
2023-02-03T06:57:11.652Z,61.50
2023-02-03T06:59:38.141Z,61.67
2023-02-03T07:02:04.615Z,61.94
2023-02-03T07:04:31.123Z,61.21
2023-02-03T07:06:57.619Z,60.37
2023-02-03T07:09:24.101Z,60.48
2023-02-03T07:11:50.580Z,60.28
2023-02-03T07:14:17.129Z,59.80
2023-02-03T07:16:43.589Z,59.07
2023-02-03T07:19:10.066Z,59.32
2023-02-03T07:21:36.632Z,59.72
2023-02-03T07:24:03.198Z,58.93
2023-02-03T07:26:29.690Z,59.04
2023-02-03T07:28:56.152Z,59.26
2023-02-03T07:31:22.711Z,58.90
2023-02-03T07:33:49.402Z,59.18
2023-02-03T07:36:15.873Z,58.77
2023-02-03T07:38:42.400Z,59.15
2023-02-03T07:41:08.873Z,58.26
2023-02-03T07:43:35.490Z,58.84
2023-02-03T07:46:02.039Z,58.38
2023-02-03T07:48:28.524Z,58.56
2023-02-03T07:50:54.962Z,58.10
2023-02-03T07:53:21.481Z,58.55
2023-02-03T07:55:48.031Z,59.08
2023-02-03T07:58:14.515Z,58.54
2023-02-03T08:00:41.019Z,58.31
2023-02-03T08:03:07.675Z,57.97
2023-02-03T08:05:34.217Z,57.41
2023-02-03T08:08:00.930Z,56.91
2023-02-03T08:10:27.757Z,56.65
2023-02-03T08:12:55.983Z,56.49
2023-02-03T08:15:22.547Z,56.06
2023-02-03T08:17:50.317Z,55.80
2023-02-03T08:20:18.038Z,55.82
2023-02-03T08:22:44.860Z,55.05
2023-02-03T08:25:11.389Z,55.69
2023-02-03T08:27:39.690Z,54.91
2023-02-03T08:30:08.315Z,54.75
2023-02-03T08:32:34.864Z,53.84
2023-02-03T08:35:01.610Z,53.71
2023-02-03T08:37:28.316Z,53.01
2023-02-03T08:39:54.847Z,53.10
2023-02-03T08:42:21.364Z,54.13
2023-02-03T08:44:47.877Z,53.25
2023-02-03T08:47:14.435Z,53.56
2023-02-03T08:49:41.199Z,52.23
2023-02-03T08:52:11.134Z,53.76
2023-02-03T08:54:38.241Z,54.08
2023-02-03T08:57:05.157Z,52.29
2023-02-03T08:59:31.939Z,51.48
2023-02-03T09:01:58.397Z,50.93
2023-02-03T09:04:26.906Z,51.14
2023-02-03T09:06:54.572Z,51.58
2023-02-03T09:09:22.237Z,52.58
2023-02-03T09:11:48.866Z,54.43
2023-02-03T09:14:15.315Z,54.32
2023-02-03T09:16:44.900Z,54.32
2023-02-03T09:19:11.556Z,54.48
2023-02-03T09:21:39.285Z,53.72
2023-02-03T09:24:12.945Z,52.72
2023-02-03T09:26:39.474Z,52.37
2023-02-03T09:29:06.281Z,52.24
2023-02-03T09:31:32.765Z,52.48
2023-02-03T09:33:59.848Z,52.37
2023-02-03T09:36:26.880Z,51.78
2023-02-03T09:38:53.403Z,51.59
2023-02-03T09:41:36.079Z,51.95
2023-02-03T09:44:15.043Z,52.64
2023-02-03T09:46:53.280Z,52.09
2023-02-03T09:49:36.049Z,52.48
2023-02-03T09:52:23.511Z,51.50
2023-02-03T09:55:10.255Z,51.50
2023-02-03T09:57:52.221Z,53.54
2023-02-03T10:00:35.710Z,54.13
2023-02-03T10:03:20.767Z,53.52
2023-02-03T10:05:58.889Z,53.20
2023-02-03T10:08:50.188Z,54.15
2023-02-03T10:11:31.767Z,53.56
2023-02-03T10:14:47.504Z,54.10
2023-02-03T10:17:33.965Z,53.96
2023-02-03T10:20:18.380Z,52.30
2023-02-03T10:22:53.835Z,51.41
2023-02-03T10:25:28.896Z,52.04
2023-02-03T10:28:00.964Z,50.85
2023-02-03T10:30:33.766Z,50.94
2023-02-03T10:33:10.680Z,49.47
2023-02-03T10:35:51.717Z,49.53
2023-02-03T10:38:41.895Z,49.72
2023-02-03T10:41:09.459Z,49.45
2023-02-03T10:43:36.715Z,49.00
2023-02-03T10:46:03.487Z,49.87
2023-02-03T10:48:30.010Z,49.97
2023-02-03T10:50:58.393Z,49.42
2023-02-03T10:53:33.803Z,50.15
2023-02-03T10:56:13.997Z,49.62
2023-02-03T10:58:48.700Z,50.31
2023-02-03T11:01:19.269Z,49.59
2023-02-03T11:03:57.649Z,50.58
2023-02-03T11:06:24.459Z,52.52
2023-02-03T11:08:51.742Z,53.63
2023-02-03T11:11:22.341Z,53.31
2023-02-03T11:13:54.197Z,52.58
2023-02-03T11:16:23.181Z,53.19
2023-02-03T11:18:57.462Z,54.22
2023-02-03T11:21:29.896Z,54.31
2023-02-03T11:24:20.402Z,54.74
2023-02-03T11:26:54.471Z,54.70
2023-02-03T11:29:27.292Z,54.87
2023-02-03T11:32:01.334Z,53.91
2023-02-03T11:34:32.762Z,54.18
2023-02-03T11:37:25.566Z,52.55
2023-02-03T11:40:08.625Z,52.79
2023-02-03T11:42:38.386Z,52.74
2023-02-03T11:45:25.888Z,51.71
2023-02-03T11:48:18.233Z,50.91
2023-02-03T11:50:59.380Z,52.37
2023-02-03T11:53:32.214Z,52.08
2023-02-03T11:56:29.464Z,51.76
2023-02-03T11:59:33.419Z,50.10
2023-02-03T12:02:14.804Z,51.31
2023-02-03T12:05:00.851Z,51.19
2023-02-03T12:08:09.600Z,50.18
2023-02-03T12:11:07.205Z,51.20
2023-02-03T12:13:45.482Z,50.47
2023-02-03T12:16:47.393Z,53.24
2023-02-03T12:19:57.785Z,51.79
2023-02-03T12:22:46.288Z,52.08
2023-02-03T12:25:33.619Z,51.32
2023-02-03T12:28:03.052Z,50.05
2023-02-03T12:30:37.644Z,49.78
2023-02-03T12:33:19.151Z,48.66
2023-02-03T12:36:09.291Z,49.15
2023-02-03T12:38:44.796Z,49.33
2023-02-03T12:41:21.774Z,48.76
2023-02-03T12:43:55.053Z,48.50
2023-02-03T12:46:35.838Z,48.34
2023-02-03T12:49:21.186Z,47.14
2023-02-03T12:52:06.964Z,47.41
2023-02-03T12:54:55.016Z,47.28
2023-02-03T12:57:44.653Z,50.23
2023-02-03T13:00:48.519Z,51.07
2023-02-03T13:03:24.220Z,51.05
2023-02-03T13:06:04.727Z,49.91
2023-02-03T13:08:49.800Z,50.00
2023-02-03T13:11:31.218Z,49.17
2023-02-03T13:14:15.057Z,48.97
2023-02-03T13:16:53.559Z,48.01
2023-02-03T13:19:30.815Z,48.07
2023-02-03T13:21:57.387Z,46.90
2023-02-03T13:24:27.508Z,46.51
2023-02-03T13:27:03.999Z,45.89
2023-02-03T13:29:38.055Z,45.21
2023-02-03T13:32:15.736Z,44.07
2023-02-03T13:35:10.914Z,43.36
2023-02-03T13:38:07.050Z,42.23
2023-02-03T13:41:02.862Z,41.77
2023-02-03T13:43:40.191Z,40.93
2023-02-03T13:46:21.414Z,40.44
2023-02-03T13:48:48.408Z,39.99
2023-02-03T13:51:20.976Z,39.61
2023-02-03T13:53:50.717Z,39.41
2023-02-03T13:56:24.881Z,39.68
2023-02-03T13:59:19.889Z,39.47
2023-02-03T14:01:46.516Z,38.64
2023-02-03T14:04:21.853Z,38.24
2023-02-03T14:06:48.422Z,37.61
2023-02-03T14:09:30.066Z,37.37
2023-02-03T14:12:14.774Z,36.34
2023-02-03T14:14:56.999Z,36.24
2023-02-03T14:17:35.388Z,36.48
2023-02-03T14:20:25.448Z,35.72
2023-02-03T14:23:07.809Z,35.80
2023-02-03T14:25:43.492Z,35.18
2023-02-03T14:28:37.965Z,33.97
2023-02-03T14:31:09.992Z,33.23
2023-02-03T14:33:48.379Z,32.96
2023-02-03T14:36:35.523Z,32.39
2023-02-03T14:39:39.855Z,32.89
2023-02-03T14:42:21.460Z,32.37
2023-02-03T14:45:07.137Z,32.57
2023-02-03T14:47:55.625Z,32.43
2023-02-03T14:51:02.581Z,33.02
2023-02-03T14:53:45.874Z,33.33
2023-02-03T14:56:33.973Z,33.84
2023-02-03T14:59:12.622Z,33.60
2023-02-03T15:01:39.120Z,34.16
2023-02-03T15:04:23.005Z,34.98
2023-02-03T15:06:52.567Z,34.46
2023-02-03T15:09:37.582Z,34.67
2023-02-03T15:12:17.821Z,34.30
2023-02-03T15:14:47.303Z,34.58
2023-02-03T15:17:27.149Z,34.80
2023-02-03T15:19:54.170Z,34.54
2023-02-03T15:22:23.796Z,35.61
2023-02-03T15:25:00.287Z,35.87
2023-02-03T15:27:29.526Z,35.88
2023-02-03T15:29:56.125Z,35.97
2023-02-03T15:32:35.893Z,36.31
2023-02-03T15:35:09.569Z,36.46
2023-02-03T15:37:50.357Z,36.90
2023-02-03T15:40:23.562Z,37.77
2023-02-03T15:43:06.578Z,37.88
2023-02-03T15:45:38.400Z,38.14
2023-02-03T15:48:13.414Z,38.52
2023-02-03T15:50:51.801Z,39.30
2023-02-03T15:53:46.679Z,39.63
2023-02-03T15:56:28.347Z,39.94
2023-02-03T15:58:54.867Z,40.31
2023-02-03T16:01:23.828Z,40.23
2023-02-03T16:03:54.307Z,41.53
2023-02-03T16:06:37.709Z,41.57
2023-02-03T16:09:06.573Z,42.18
2023-02-03T16:11:39.381Z,43.45
2023-02-03T16:14:10.827Z,43.77
2023-02-03T16:16:55.211Z,43.62
2023-02-03T16:19:29.074Z,44.09
2023-02-03T16:21:57.654Z,43.81
2023-02-03T16:24:42.899Z,43.99
2023-02-03T16:27:28.063Z,45.04
2023-02-03T16:30:14.751Z,45.00
2023-02-03T16:32:41.236Z,45.48
2023-02-03T16:35:10.247Z,46.21
2023-02-03T16:37:44.337Z,47.10
2023-02-03T16:40:13.250Z,48.30
2023-02-03T16:42:40.892Z,49.31
2023-02-03T16:45:18.263Z,49.09
2023-02-03T16:47:46.260Z,48.83
2023-02-03T16:50:15.139Z,49.18
2023-02-03T16:52:41.661Z,49.88
2023-02-03T16:55:09.143Z,49.84
2023-02-03T16:57:35.632Z,49.92
2023-02-03T17:00:03.320Z,49.98
2023-02-03T17:02:30.181Z,49.38
2023-02-03T17:04:56.718Z,49.99
2023-02-03T17:07:23.226Z,49.05
2023-02-03T17:09:49.733Z,49.98
2023-02-03T17:12:16.249Z,50.40
2023-02-03T17:14:42.729Z,49.98
2023-02-03T17:17:09.239Z,50.43
2023-02-03T17:19:35.697Z,49.78
2023-02-03T17:22:02.245Z,49.55
2023-02-03T17:24:28.908Z,48.88
2023-02-03T17:26:57.361Z,49.35
2023-02-03T17:29:24.568Z,49.12
2023-02-03T17:31:51.076Z,49.31
2023-02-03T17:34:17.681Z,49.27
2023-02-03T17:36:44.134Z,49.50
2023-02-03T17:55:33.190Z,50.86
2023-02-03T17:58:00.101Z,50.35
2023-02-03T18:00:26.989Z,50.32
2023-02-03T18:02:53.452Z,49.88
2023-02-03T18:05:20.004Z,50.20
2023-02-03T18:07:49.777Z,50.30
2023-02-03T18:10:16.675Z,50.34
2023-02-03T18:12:43.142Z,50.63
2023-02-03T18:15:09.773Z,50.97
2023-02-03T18:17:36.277Z,50.39
2023-02-03T18:20:02.850Z,50.82
2023-02-03T18:22:29.929Z,51.21
2023-02-03T18:24:56.500Z,51.03
2023-02-03T18:27:23.065Z,51.05
2023-02-03T18:29:49.579Z,50.80
2023-02-03T18:32:16.727Z,51.26
2023-02-03T18:34:43.734Z,51.17
2023-02-03T18:37:10.986Z,51.19
2023-02-03T18:39:37.685Z,51.48
2023-02-03T18:42:04.382Z,52.27
2023-02-03T18:44:30.976Z,53.21
2023-02-03T18:46:57.501Z,53.41
2023-02-03T18:49:24.063Z,54.04
2023-02-03T18:51:50.529Z,53.62
2023-02-03T18:54:16.989Z,53.12
2023-02-03T18:56:43.454Z,54.29
2023-02-03T18:59:11.191Z,54.94
2023-02-03T19:01:38.533Z,55.61
2023-02-03T19:04:05.833Z,55.51
2023-02-03T19:06:34.394Z,55.16
2023-02-03T19:09:01.546Z,54.28
2023-02-03T19:11:28.077Z,53.87
2023-02-03T19:13:54.528Z,54.82
2023-02-03T19:16:21.112Z,53.58
2023-02-03T19:18:47.615Z,54.19
2023-02-03T19:21:14.293Z,54.63
2023-02-03T19:23:42.396Z,55.04
2023-02-03T19:26:09.339Z,55.07
2023-02-03T19:28:36.380Z,54.68
2023-02-03T19:31:11.280Z,55.06
2023-02-03T19:33:37.880Z,55.14
2023-02-03T19:36:06.010Z,54.48
2023-02-03T19:38:35.461Z,55.75
2023-02-03T19:41:01.941Z,55.71
2023-02-03T19:43:29.608Z,55.69
2023-02-03T19:45:56.257Z,55.54
2023-02-03T19:48:23.006Z,55.75
2023-02-03T19:50:49.491Z,55.16
2023-02-03T19:53:17.605Z,55.40
2023-02-03T19:55:45.854Z,53.84
2023-02-03T19:58:13.420Z,54.01
2023-02-03T20:00:40.859Z,54.25
2023-02-03T20:03:07.330Z,54.79
2023-02-03T20:05:33.911Z,54.88
2023-02-03T20:08:00.630Z,55.56
2023-02-03T20:10:27.380Z,55.77
2023-02-03T20:12:57.740Z,55.38
2023-02-03T20:15:24.277Z,54.22
2023-02-03T20:17:50.856Z,54.62
2023-02-03T20:20:19.200Z,53.00
2023-02-03T20:22:47.116Z,52.63
2023-02-03T20:25:13.736Z,52.10
2023-02-03T20:27:40.362Z,52.93
2023-02-03T20:30:07.978Z,52.33
2023-02-03T20:32:34.570Z,52.41
2023-02-03T20:35:01.247Z,50.76
2023-02-03T20:37:27.703Z,50.21
2023-02-03T20:39:54.188Z,50.23
2023-02-03T20:42:21.437Z,50.06
2023-02-03T20:44:47.933Z,49.93
2023-02-03T20:47:17.032Z,49.31
2023-02-03T20:49:43.894Z,49.53
2023-02-03T20:52:14.296Z,48.61
2023-02-03T20:54:40.959Z,49.15
2023-02-03T20:57:14.655Z,50.95
2023-02-03T20:59:42.363Z,50.32
2023-02-03T21:02:19.188Z,49.95
2023-02-03T21:04:45.637Z,49.49
2023-02-03T21:07:14.029Z,49.63
2023-02-03T21:09:40.691Z,49.76
2023-02-03T21:12:12.294Z,49.65
2023-02-03T21:14:42.811Z,48.96
2023-02-03T21:17:18.522Z,49.08
2023-02-03T21:19:45.341Z,49.45
2023-02-03T21:22:22.480Z,49.08
2023-02-03T21:24:55.282Z,49.80
2023-02-03T21:27:33.181Z,50.10
2023-02-03T21:30:27.161Z,50.18
2023-02-03T21:32:53.970Z,50.24
2023-02-03T21:35:24.871Z,49.86
2023-02-03T21:37:59.863Z,50.29
2023-02-03T21:40:30.010Z,50.35
2023-02-03T21:42:58.110Z,49.91
2023-02-03T21:45:34.883Z,51.28
2023-02-03T21:48:22.619Z,50.96
2023-02-03T21:50:49.108Z,51.24
2023-02-03T21:53:27.567Z,52.05
2023-02-03T21:55:54.760Z,52.32
2023-02-03T21:58:32.156Z,53.93
2023-02-03T22:01:01.699Z,53.97
2023-02-03T22:03:29.778Z,53.88
2023-02-03T22:06:18.984Z,55.11
2023-02-03T22:08:48.315Z,55.53
2023-02-03T22:11:16.795Z,55.44
2023-02-03T22:13:43.225Z,55.69
2023-02-03T22:16:10.272Z,55.30
2023-02-03T22:18:36.829Z,54.83
2023-02-03T22:21:03.300Z,55.21
2023-02-03T22:23:29.796Z,55.10
2023-02-03T22:25:56.321Z,54.17
2023-02-03T22:28:22.811Z,53.85
2023-02-03T22:30:49.375Z,54.59
2023-02-03T22:33:15.924Z,54.91
2023-02-03T22:35:42.419Z,54.64
2023-02-03T22:38:08.883Z,54.35
2023-02-03T22:40:35.386Z,53.34
2023-02-03T22:43:01.868Z,53.60
2023-02-03T22:45:28.505Z,53.04
2023-02-03T22:47:55.052Z,52.33
2023-02-03T22:50:34.420Z,52.05
2023-02-03T22:53:01.859Z,52.11
2023-02-03T22:55:28.368Z,52.46
2023-02-03T22:57:54.824Z,53.70
2023-02-03T23:00:23.731Z,53.58
2023-02-03T23:02:50.797Z,53.72
2023-02-03T23:05:18.633Z,54.14
2023-02-03T23:07:45.988Z,55.05
2023-02-03T23:10:23.077Z,56.23
2023-02-03T23:12:50.711Z,57.50
2023-02-03T23:15:17.684Z,58.22
2023-02-03T23:17:45.365Z,57.96
2023-02-03T23:20:14.024Z,57.15
2023-02-03T23:22:40.497Z,58.64
2023-02-03T23:25:07.383Z,59.63
2023-02-03T23:27:33.863Z,59.81
2023-02-03T23:30:00.359Z,59.93
2023-02-03T23:32:26.872Z,59.03
2023-02-03T23:34:53.363Z,59.75
2023-02-03T23:37:19.804Z,58.91
2023-02-03T23:39:46.267Z,58.99
2023-02-03T23:42:12.720Z,60.01
2023-02-03T23:44:39.177Z,61.95
2023-02-03T23:47:05.646Z,63.37
2023-02-03T23:49:32.121Z,63.90
2023-02-03T23:51:59.344Z,63.62
2023-02-03T23:54:26.164Z,63.83
2023-02-03T23:56:52.973Z,63.28
2023-02-03T23:59:19.722Z,61.69
